默认 日期 大小 文件数 浏览量 最新下载 xml
vol1.磁力链接相关资源由用户搜索指令自动获取,结果来源于网络,本站不存储任何资料,亦不承担任何责任,请于24小时内删除,搜索到1458个磁力,用时2ms。
    {"Nymphomaniac.Vol1.Directors.Cut.2013.bdrip_[2 ... 2.18].avi": 2345197568, "Nymphomaniac.Vol1.Directors.Cut.2013.bdrip_[2 ... 18]_eng.ac3": 598795008, "Nymphomaniac.Vol1.Directors.Cut.2013.bdrip_[2 ... sub.eng.srt": 118733, "Nymphomaniac.Vol1.Directors.Cut.2013.bdrip_[2 ...
创建时间: 2018-11-02 09:58:07 大小:5.39 GB 文件数量:8 热度:24 最近下载:2025-05-13 18:57:01
    {"FR.jpg": 49764, "INF.txt": 1665, "16-nord est - overnight .mp3": 14625527, "29-model 1129 - wot times .mp3": 20631606, "13-nobel - turn on your radio .mp3": 15942110, "20-beat dance - smalltown boy .mp3": 21241832, "24-firefly - kiss power (remix) .mp3": ...
创建时间: 2018-11-02 19:08:44 大小:425.3 MB 文件数量:32 热度:20 最近下载:2024-08-28 20:26:01
    {"VIDEO_TS": {"VIDEO_TS.BUP": 8192, "VIDEO_TS.IFO": 8192, "VTS_01_0.BUP": 67584, "VTS_01_0.IFO": 67584, "VTS_01_0.VOB": 1929216, "VTS_01_1.VOB": 1073739776, "VTS_01_2.VOB": 1073739776, "VTS_01_3.VOB": 1073739776, "VTS_01_4.VOB": 1073739776, "VTS_01_5.VOB": ...
创建时间: 2018-11-02 20:49:08 大小:4.23 GB 文件数量:10 热度:19 最近下载:2025-08-13 03:48:01
    {"Run to Cadence With the U.S. Marines- Bonus": {"USMC cadence-Suzy said, .mp3": 2154496, "USMC cadence-CadenceMedley.mp3": 5817284, "Up from a Sub 60 Feet Below.mp3": 1257472, "USMC cadence-running cadence.mp3": 2258944, "USMC cadence-Everywhere We Go.mp3 ...
创建时间: 2018-11-02 21:11:45 大小:288.77 MB 文件数量:113 热度:23 最近下载:2025-10-14 00:28:02
    {"Lucia.mp3": 5183470, "Fiesta.mp3": 4291858, "Se¤ora.mp3": 5182738, "Cantares.mp3": 5522121, "La seata.MP3": 4038053, "Penelope.mp3": 6818944, "Peque¤a.MP3": 7969481, "Vencidos.mp3": 5640613, "Un dia mas.MP3": 6778715, "Tio Alberto.mp3": 5654510, " ...
创建时间: 2018-11-03 05:47:13 大小:108.89 MB 文件数量:22 热度:17 最近下载:2025-07-15 23:25:03
    {"BF-235.1080p": {"BF-235.jpg": 147928, "@RUNBKK.jpg": 22685, "BF-235_A.mkv": 1419373569, "BF-235_B.mkv": 2133700126, "BF-235_C.mkv": 1644671112, "BF-235_A_s.jpeg": 394795, "BF-235_B_s.jpeg": 335653, "BF-235_C_s.jpeg": 353636, "精选系列!collection.htm": 447}, ...
创建时间: 2018-11-03 08:32:00 大小:50.15 GB 文件数量:98 热度:136 最近下载:2025-10-16 01:11:01
    {"VIDEO_TS": {"VIDEO_TS.BUP": 16384, "VIDEO_TS.IFO": 16384, "VIDEO_TS.VOB": 157696, "VTS_01_0.BUP": 61440, "VTS_01_0.IFO": 61440, "VTS_01_0.VOB": 70813696, "VTS_01_1.VOB": 1073565696, "VTS_01_2.VOB": 1073565696, "VTS_01_3.VOB": 137285632, "VTS_02_0.BUP": ...
创建时间: 2018-11-03 12:24:02 大小:4.37 GB 文件数量:23 热度:17 最近下载:2025-01-19 11:23:03
    {"[BDMV][アニメ][131225] とある科学の超電磁砲S Vol.6.part1.rar": 4000000000, "[BDMV][アニメ][131225] とある科学の超電磁砲S Vol.6.part2.rar": 4000000000, "[BDMV][アニメ][131225] とある科学の超電磁砲S Vol.6.part3.rar": 4000000000, "[BDMV][アニメ][131225] とある科学の超電磁砲S Vol.6.part4.rar": 4000000000, "[ ...
创建时间: 2018-11-03 21:00:08 大小:181.34 GB 文件数量:53 热度:43 最近下载:2025-08-14 02:12:01
    {"Redist": {"DXSETUP.exe": 333656, "vcredist_x86.exe": 7273076}, "setup.exe": 9968542, "data-1.bin": 1814369773}
创建时间: 2018-11-03 21:50:03 大小:1.71 GB 文件数量:4 热度:26 最近下载:2025-08-18 08:54:02
    {"Feynman R. F. - Vol. 3 Quantum mechanics - 1964.pdf": 18875437, "Feynman R. F. - Vol. 2 Mainly electromagnetism and matter - 1964.djvu": 11266322, "Feynman R. F. - Vol. 1 Mainly mechanics, radiation, and heat - 1963.djvu": 9295718}
创建时间: 2018-11-04 02:40:04 大小:37.61 MB 文件数量:3 热度:24 最近下载:2025-10-16 21:30:02
    {"05 - Rebuscar - Galeron.mp3": 4821496, "06 - Lara Brothers - La Gaita.mp3": 4872905, "14 - Don Alberto � Rebuscar.mp3": 3278140, "12 - Lara Brothers - Que Venga.mp3": 7239892, "02 - Los Tocadores - Sereno Sereno.mp3": 5528600, "01-poser- ...
创建时间: 2018-11-04 17:15:40 大小:76.45 MB 文件数量:16 热度:14 最近下载:2025-08-12 17:18:02
    {"[BDMV][アニメ][130529] ゆゆ式 1 (初回限定版).part1.rar": 4000000000, "[BDMV][アニメ][130529] ゆゆ式 1 (初回限定版).part2.rar": 4000000000, "[BDMV][アニメ][130529] ゆゆ式 1 (初回限定版).part3.rar": 4000000000, "[BDMV][アニメ][130529] ゆゆ式 1 (初回限定版).part4.rar": 4000000000, "[BDMV][アニメ][130529 ...
创建时间: 2018-11-04 23:00:16 大小:98.59 GB 文件数量:30 热度:14 最近下载:2024-08-29 20:50:01
    {"celine_bara_pornanthologie_volume1.avi": 1023387942, "celine_bara_pornanthologie_volume2.avi": 1047546816, "celine_bara_pornanthologie_volume3.avi": 1021778628}
创建时间: 2018-11-04 23:33:09 大小:2.88 GB 文件数量:3 热度:11 最近下载:2024-08-30 11:46:01
    {"Audiochecker.txt": 1836, "7-Stratil-Peace.flac": 55496832, "5-Ojos-Good Weed.flac": 47732670, "8-Haka-Club Tournament.flac": 59675295, "4-Terahert-More Tequila.flac": 66491119, "6-Inference-Tell You this.flac": 61278993, "3-Ix-Lam-At-Xtreme Pacheque.flac ...
创建时间: 2018-11-05 02:23:42 大小:481.97 MB 文件数量:10 热度:19 最近下载:2025-08-25 03:24:01
    {"www.TMasGames.com.url": 252, "haconsole-gamecubedvd1.iso": 4315152384}
创建时间: 2018-11-05 12:14:50 大小:4.02 GB 文件数量:2 热度:14 最近下载:2025-01-21 18:37:02
    {"Torrent downloaded from Demonoid.com.txt": 47, "The Colt .45 Automatic - A Shop Manual Vol.1 by Kuhnhausen.pdf": 38643567}
创建时间: 2018-11-05 12:54:38 大小:36.85 MB 文件数量:2 热度:26 最近下载:2025-04-13 13:57:01
    {"vibes-dont-lie-1.jpg": 1475703, "KANABIS_SOUND_PRESENTS_VIBES_DONT_LIE_VOL_1.mp3": 68708209}
创建时间: 2018-11-05 19:15:05 大小:66.93 MB 文件数量:2 热度:15 最近下载:2025-08-15 07:27:01
    {"01.Queen- Days Of Our Lives. vol.1(2011).avi": 759832298, "02.Queen- Days Of Our Lives. vol.2(2011).avi": 755614530}
创建时间: 2018-11-05 22:17:07 大小:1.41 GB 文件数量:2 热度:13 最近下载:2025-08-13 02:21:01
    {"cauiso.nfo": 5028, "cau-maspr1.r00": 50000000, "cau-maspr1.r01": 50000000, "cau-maspr1.r02": 50000000, "cau-maspr1.r03": 50000000, "cau-maspr1.r04": 50000000, "cau-maspr1.r05": 50000000, "cau-maspr1.r06": 50000000, "cau-maspr1.r07": 50000000, "cau-maspr1 ...
创建时间: 2018-11-05 23:30:23 大小:3.65 GB 文件数量:81 热度:14 最近下载:2025-08-11 03:21:02
    {"VOL1.avi": 695953408, "VOL2.avi": 696041472, "KeFF-INFO.nfo": 991, "STRAWBERRY.SHORTCAKE.VOL1+2.DVDrip.Swedish.XviD.AC3-Mr_KeFF.jpg": 25986}
创建时间: 2018-11-06 05:44:05 大小:1.3 GB 文件数量:4 热度:22 最近下载:2025-08-23 10:49:01